Spragge, Canada
Current Conditions -  °F | °C
As of 4:00 PM on Saturday 20 Dec 2014 (Local Time) from CYZE Reporting Station
Overcast Overcast  
Wind Chill: 18°   Ceiling: 2000
Heat Index: 25°   Visibility: 9mi
Dew Point: 21°   Wind: 6mph
Humidity: 86%   Direction: 80°E
Pressure: 30.26"   Gusts: NA
Location:  46.21°N, 82.66°W
Report Text: CYZE 202100Z AUTO 08005KT 9SM OVC020 M04/M06 A3026 RMK ICG SLP260
Loading
Personal Weather Stations






























Interactive Weather Map New forecast layout! Learn more

10-Day Weather Forecast

Advertisements
Track Severe Weather on mobile